Time;durP1;ratioP1;P1;durP2;ratioP2;P2;SDS_P1;SDS_P2;PMS_P1;PMS_P2;Temp;Humidity;BMP_temperature;BMP_pressure;BME280_temperature;BME280_humidity;BME280_pressure;Samples;Min_cycle;Max_cycle;Signal;HPM_P1;HPM_P2
2021/10/03 00:00:21;;;;;;;14.25;9.32;;;;;;;10.93;86.27;100682.56;5136398;27;20449;-71
2021/10/03 00:02:52;;;;;;;15.27;9.27;;;;;;;11.01;85.45;100690.16;5136874;27;20430;-72
2021/10/03 00:05:23;;;;;;;16.90;9.90;;;;;;;10.90;86.36;100685.38;5137101;27;20510;-72
2021/10/03 00:07:58;;;;;;;15.63;9.68;;;;;;;10.91;86.02;100680.94;5136927;27;20043;-72
2021/10/03 00:10:29;;;;;;;13.98;8.40;;;;;;;10.79;86.06;100683.28;5135896;27;20134;-71
2021/10/03 00:13:03;;;;;;;13.63;9.50;;;;;;;10.73;86.28;100683.66;5136871;27;20070;-72
2021/10/03 00:15:31;;;;;;;;;;;;;;;10.73;86.58;100678.31;5137458;27;20050;-71
2021/10/03 00:17:59;;;;;;;17.17;9.07;;;;;;;10.79;85.99;100683.28;5136730;27;19942;-71
2021/10/03 00:20:28;;;;;;;14.55;8.88;;;;;;;10.71;85.89;100680.22;5136885;27;20078;-71
2021/10/03 00:22:58;;;;;;;13.85;8.85;;;;;;;10.70;85.82;100682.94;5136605;27;20046;-71
2021/10/03 00:25:28;;;;;;;14.45;8.75;;;;;;;10.62;86.52;100688.69;5136486;27;20043;-71
2021/10/03 00:27:57;;;;;;;15.40;8.77;;;;;;;10.53;86.82;100691.84;5136463;27;20088;-71
2021/10/03 00:30:25;;;;;;;15.32;8.25;;;;;;;10.63;85.86;100684.22;5136412;27;20471;-71
2021/10/03 00:32:54;;;;;;;13.45;8.27;;;;;;;10.67;85.02;100673.28;5136205;27;20104;-71
2021/10/03 00:35:23;;;;;;;13.20;8.32;;;;;;;10.60;84.91;100679.88;5136670;27;20376;-71
2021/10/03 00:37:51;;;;;;;14.07;8.05;;;;;;;10.40;86.54;100670.28;5136424;27;20043;-72
2021/10/03 00:40:21;;;;;;;13.77;8.60;;;;;;;10.42;86.18;100680.88;5136675;27;20410;-74
2021/10/03 00:42:50;;;;;;;12.98;8.45;;;;;;;10.40;86.11;100680.09;5136184;27;20510;-80
2021/10/03 00:45:18;;;;;;;13.95;8.30;;;;;;;10.41;85.77;100677.34;5136256;27;20039;-74
2021/10/03 00:47:49;;;;;;;13.43;7.90;;;;;;;10.41;85.52;100680.00;5136493;27;20043;-74
2021/10/03 00:50:17;;;;;;;14.05;8.27;;;;;;;10.36;85.91;100679.41;5136119;27;20043;-73
2021/10/03 00:52:48;;;;;;;12.43;7.75;;;;;;;10.34;85.41;100683.09;5136206;27;20077;-73
2021/10/03 00:55:17;;;;;;;12.80;8.48;;;;;;;10.26;86.31;100679.03;5136302;27;20035;-73
2021/10/03 00:57:49;;;;;;;17.75;8.82;;;;;;;10.13;87.62;100687.69;5136533;27;20039;-73
2021/10/03 01:00:20;;;;;;;17.83;9.23;;;;;;;10.15;87.42;100685.81;5136374;27;20122;-73
2021/10/03 01:02:48;;;;;;;13.38;8.45;;;;;;;10.10;87.57;100683.38;5136259;27;20130;-73
2021/10/03 01:05:17;;;;;;;18.73;9.35;;;;;;;10.21;87.72;100691.69;5136152;27;20043;-73
2021/10/03 01:07:46;;;;;;;16.33;8.68;;;;;;;10.04;88.71;100689.03;5136109;27;20039;-73
2021/10/03 01:10:17;;;;;;;15.02;9.00;;;;;;;9.99;89.36;100680.41;5135352;27;20385;-73
2021/10/03 01:12:48;;;;;;;14.40;8.52;;;;;;;10.07;88.71;100680.00;5136038;27;20039;-72
2021/10/03 01:15:16;;;;;;;16.33;9.30;;;;;;;9.99;89.25;100680.41;5135495;27;20074;-72
2021/10/03 01:17:44;;;;;;;17.45;9.43;;;;;;;9.86;89.74;100689.97;5135792;27;20050;-72
2021/10/03 01:20:12;;;;;;;17.98;8.52;;;;;;;9.79;89.82;100684.06;5134254;27;20051;-72
2021/10/03 01:22:42;;;;;;;13.95;7.88;;;;;;;9.73;89.89;100679.91;5135480;27;20092;-73
2021/10/03 01:25:12;;;;;;;17.50;8.85;;;;;;;9.63;91.59;100673.31;5135095;27;20043;-72
2021/10/03 01:27:40;;;;;;;17.83;8.38;;;;;;;9.56;92.00;100679.03;5135914;27;20074;-72
2021/10/03 01:30:14;;;;;;;15.05;8.48;;;;;;;9.63;91.63;100689.28;5135031;27;20043;-73
2021/10/03 01:32:43;;;;;;;13.57;7.82;;;;;;;9.59;91.96;100684.19;5135088;27;20039;-73
2021/10/03 01:35:11;;;;;;;13.30;8.45;;;;;;;9.67;92.31;100692.69;5134983;27;20042;-75
2021/10/03 01:37:41;;;;;;;16.92;8.45;;;;;;;9.50;93.36;100692.63;5135198;27;20047;-74
2021/10/03 01:40:11;;;;;;;12.57;8.05;;;;;;;9.64;91.75;100690.16;5134855;27;20050;-74
2021/10/03 01:42:41;;;;;;;15.50;8.32;;;;;;;9.72;89.91;100688.84;5135401;27;20075;-74
2021/10/03 01:45:12;;;;;;;15.85;8.68;;;;;;;9.61;91.68;100675.19;5134824;27;20055;-74
2021/10/03 01:48:04;;;;;;;16.80;8.25;;;;;;;9.53;92.77;100677.38;5135384;27;20046;-75
2021/10/03 01:50:35;;;;;;;14.38;8.80;;;;;;;9.50;92.79;100677.53;5135177;27;20084;-74
2021/10/03 01:53:06;;;;;;;12.40;8.13;;;;;;;9.78;90.44;100677.03;5135138;27;20047;-74
2021/10/03 01:55:34;;;;;;;16.10;8.20;;;;;;;9.73;88.93;100671.91;5135133;27;20061;-73
2021/10/03 01:58:03;;;;;;;12.25;8.05;;;;;;;9.64;90.71;100672.38;5134653;27;20088;-74
2021/10/03 02:00:32;;;;;;;12.65;8.10;;;;;;;9.50;91.94;100666.88;5135122;27;20039;-73
2021/10/03 02:03:02;;;;;;;16.42;8.18;;;;;;;9.39;92.86;100674.53;5134688;27;20057;-73
2021/10/03 02:05:35;;;;;;;11.23;7.25;;;;;;;9.32;92.30;100667.75;5134747;27;20042;-73
2021/10/03 02:08:06;;;;;;;;;;;;;;;9.28;93.07;100671.53;5134928;27;20043;-74
2021/10/03 02:10:35;;;;;;;12.55;7.82;;;;;;;9.29;92.81;100670.59;5134502;27;19949;-74
2021/10/03 02:13:04;;;;;;;13.55;7.88;;;;;;;9.24;93.43;100664.59;5134164;27;20050;-74
2021/10/03 02:15:34;;;;;;;15.35;8.13;;;;;;;9.23;92.78;100666.41;5134651;27;20161;-74
2021/10/03 02:18:05;;;;;;;14.30;7.80;;;;;;;9.22;93.33;100671.81;5134147;27;20063;-74
2021/10/03 02:20:34;;;;;;;14.10;8.15;;;;;;;9.18;94.69;100673.75;5134755;27;20043;-74
2021/10/03 02:23:06;;;;;;;14.45;7.78;;;;;;;9.18;92.96;100679.09;5134114;27;20043;-75
2021/10/03 02:25:34;;;;;;;13.27;7.65;;;;;;;9.12;94.33;100666.91;5133985;27;20057;-76
2021/10/03 02:28:03;;;;;;;13.50;8.18;;;;;;;9.08;93.55;100670.69;5134092;27;20043;-76
2021/10/03 02:30:31;;;;;;;15.73;8.38;;;;;;;9.04;96.77;100674.41;5134194;27;20039;-76
2021/10/03 02:32:59;;;;;;;16.35;8.38;;;;;;;9.00;97.55;100674.63;5134054;27;20043;-76
2021/10/03 02:35:27;;;;;;;16.38;8.40;;;;;;;8.98;97.39;100680.03;5133645;27;20100;-75
2021/10/03 02:37:56;;;;;;;14.23;8.85;;;;;;;8.97;98.40;100680.06;5134160;27;20039;-75
2021/10/03 02:40:26;;;;;;;18.15;8.60;;;;;;;8.90;99.67;100679.53;5134473;27;20050;-75
2021/10/03 02:42:59;;;;;;;14.52;8.27;;;;;;;8.80;100.00;100680.88;5132043;27;20516;-75
2021/10/03 02:45:29;;;;;;;14.40;8.00;;;;;;;8.75;100.00;100677.56;5134086;27;20039;-75
2021/10/03 02:47:57;;;;;;;18.15;8.73;;;;;;;8.79;100.00;100674.69;5133790;27;20047;-80
2021/10/03 02:50:26;;;;;;;12.05;7.95;;;;;;;8.76;100.00;100680.13;5133914;27;20047;-75
2021/10/03 02:52:54;;;;;;;13.77;8.20;;;;;;;8.69;100.00;100676.06;5134279;27;20043;-76
2021/10/03 02:55:23;;;;;;;12.38;8.07;;;;;;;8.74;100.00;100675.81;5134051;27;20035;-75
2021/10/03 02:57:53;;;;;;;13.30;8.65;;;;;;;8.81;100.00;100674.63;5134314;27;20047;-73
2021/10/03 03:00:21;;;;;;;14.60;8.55;;;;;;;8.75;100.00;100672.22;5133618;27;20043;-74
2021/10/03 03:02:49;;;;;;;14.15;8.23;;;;;;;8.73;100.00;100669.66;5133769;27;20061;-73
2021/10/03 03:05:20;;;;;;;14.32;9.02;;;;;;;8.73;100.00;100679.44;5133714;27;20399;-74
2021/10/03 03:07:48;;;;;;;15.13;7.85;;;;;;;8.68;100.00;100671.63;5133653;27;20549;-74
2021/10/03 03:10:16;;;;;;;16.95;9.10;;;;;;;8.74;100.00;100666.06;5133482;27;20043;-73
2021/10/03 03:12:44;;;;;;;12.45;7.65;;;;;;;8.83;99.72;100672.75;5133846;27;20043;-73
2021/10/03 03:15:14;;;;;;;15.82;8.40;;;;;;;8.80;99.02;100672.91;5133428;27;20043;-74
2021/10/03 03:17:42;;;;;;;11.88;7.93;;;;;;;8.78;97.72;100672.09;5133914;28;20039;-73
2021/10/03 03:20:11;;;;;;;15.35;8.18;;;;;;;8.74;97.67;100668.72;5133449;27;20126;-74
2021/10/03 03:22:40;;;;;;;15.38;8.07;;;;;;;8.77;97.41;100654.41;5133873;28;20092;-74
2021/10/03 03:25:10;;;;;;;14.07;7.45;;;;;;;8.80;96.51;100659.59;5133323;27;20089;-78
2021/10/03 03:27:39;;;;;;;13.70;7.65;;;;;;;8.82;96.21;100663.03;5133523;27;20057;-78
2021/10/03 03:30:09;;;;;;;13.18;7.25;;;;;;;9.00;94.35;100656.88;5133558;27;20123;-78
2021/10/03 03:32:39;;;;;;;15.18;8.27;;;;;;;9.03;92.63;100656.72;5132557;28;20092;-77
2021/10/03 03:35:11;;;;;;;11.68;7.05;;;;;;;9.07;91.31;100658.31;5133548;27;20039;-78
2021/10/03 03:37:40;;;;;;;16.08;7.10;;;;;;;8.99;92.61;100652.47;5133696;27;20100;-77
2021/10/03 03:40:10;;;;;;;12.88;7.53;;;;;;;9.08;90.57;100659.16;5133297;28;20484;-78
2021/10/03 03:42:39;;;;;;;16.30;7.63;;;;;;;9.18;88.82;100652.47;5133934;27;20395;-77
2021/10/03 03:45:08;;;;;;;16.15;8.27;;;;;;;9.12;90.19;100656.28;5133496;28;20048;-78
2021/10/03 03:47:41;;;;;;;13.60;7.72;;;;;;;8.97;91.18;100657.00;5133732;27;20043;-78
2021/10/03 03:50:12;;;;;;;16.42;8.30;;;;;;;8.91;91.54;100659.97;5133234;27;20043;-74
2021/10/03 03:52:41;;;;;;;15.38;7.78;;;;;;;8.91;90.66;100657.28;5133277;28;20044;-75
2021/10/03 03:55:10;;;;;;;13.70;7.07;;;;;;;8.86;91.70;100659.28;5135688;27;20039;-74
2021/10/03 03:57:39;;;;;;;12.10;7.55;;;;;;;8.86;91.57;100659.28;5137393;27;20043;-74
2021/10/03 04:00:10;;;;;;;14.77;7.97;;;;;;;8.95;89.96;100658.00;5136954;27;20491;-74
2021/10/03 04:02:40;;;;;;;13.93;7.90;;;;;;;8.85;91.14;100657.56;5137303;27;20047;-74
2021/10/03 04:05:09;;;;;;;13.35;8.07;;;;;;;8.77;91.61;100649.94;5135889;27;20104;-74
2021/10/03 04:07:37;;;;;;;14.73;7.45;;;;;;;8.97;90.22;100664.97;5137161;27;20529;-74
2021/10/03 04:10:06;;;;;;;14.68;7.82;;;;;;;8.91;91.87;100661.75;5136625;27;20161;-74
2021/10/03 04:12:35;;;;;;;15.68;7.78;;;;;;;8.78;92.02;100664.09;5136911;27;20035;-74
2021/10/03 04:15:04;;;;;;;12.50;7.55;;;;;;;8.85;91.21;100662.91;5136674;27;20044;-78
2021/10/03 04:17:32;;;;;;;16.02;7.65;;;;;;;8.86;90.42;100664.63;5136895;27;20050;-74
2021/10/03 04:20:02;;;;;;;17.48;7.97;;;;;;;8.80;90.04;100664.91;5136669;27;20047;-74
2021/10/03 04:22:30;;;;;;;18.75;7.72;;;;;;;8.72;91.92;100662.59;5136855;27;20053;-74
2021/10/03 04:24:58;;;;;;;15.43;8.05;;;;;;;8.67;91.83;100658.41;5137132;27;20039;-74
2021/10/03 04:27:26;;;;;;;14.52;7.68;;;;;;;8.64;92.33;100663.88;5136769;27;20047;-74
2021/10/03 04:29:55;;;;;;;15.45;7.53;;;;;;;8.63;91.33;100668.34;5136994;27;20043;-74
2021/10/03 04:32:23;;;;;;;15.23;7.93;;;;;;;8.77;90.55;100665.03;5136149;27;20043;-74
2021/10/03 04:34:54;;;;;;;12.85;7.63;;;;;;;8.72;90.62;100667.06;5136530;27;20449;-74
2021/10/03 04:37:24;;;;;;;12.90;8.40;;;;;;;8.85;89.32;100662.91;5136461;27;20135;-74
2021/10/03 04:39:52;;;;;;;13.48;7.60;;;;;;;9.05;87.46;100654.84;5136558;27;20046;-74
2021/10/03 04:42:21;;;;;;;18.92;8.93;;;;;;;9.22;86.32;100642.53;5136351;27;20039;-74
2021/10/03 04:44:49;;;;;;;14.45;9.02;;;;;;;9.24;85.58;100652.16;5136593;27;20047;-74
2021/10/03 04:47:17;;;;;;;14.70;8.45;;;;;;;9.26;85.48;100646.75;5135902;27;20095;-74
2021/10/03 04:49:48;;;;;;;15.23;8.98;;;;;;;9.22;86.24;100645.19;5136563;27;20134;-74
2021/10/03 04:52:19;;;;;;;18.05;9.18;;;;;;;9.00;87.11;100643.56;5135807;27;20046;-74
2021/10/03 04:54:49;;;;;;;15.07;9.32;;;;;;;9.01;86.65;100647.94;5136353;27;20396;-74
2021/10/03 04:57:17;;;;;;;14.85;8.32;;;;;;;9.06;86.32;100650.38;5136317;27;20090;-74
2021/10/03 04:59:45;;;;;;;13.85;8.77;;;;;;;8.97;86.53;100657.00;5135985;27;20047;-74
2021/10/03 05:02:13;;;;;;;17.13;9.25;;;;;;;9.02;86.44;100659.44;5135878;27;20045;-75
2021/10/03 05:04:42;;;;;;;20.48;8.85;;;;;;;8.94;86.84;100664.25;5136089;27;20047;-75
2021/10/03 05:07:10;;;;;;;12.65;8.55;;;;;;;8.92;86.83;100669.66;5134742;27;20121;-75
2021/10/03 05:09:41;;;;;;;19.02;8.85;;;;;;;9.00;86.17;100669.31;5136041;27;20396;-74
2021/10/03 05:12:11;;;;;;;14.23;7.75;;;;;;;9.16;85.49;100662.31;5135296;27;20039;-75
2021/10/03 05:14:39;;;;;;;13.80;7.88;;;;;;;9.16;85.62;100676.47;5135790;27;20035;-75
2021/10/03 05:17:08;;;;;;;14.60;8.10;;;;;;;9.12;85.75;100680.22;5135340;27;20433;-78
2021/10/03 05:19:36;;;;;;;15.13;8.23;;;;;;;8.98;87.33;100682.69;5135730;27;20147;-70
2021/10/03 05:22:05;;;;;;;15.63;8.95;;;;;;;8.98;87.51;100681.81;5135576;27;20055;-75
2021/10/03 05:24:33;;;;;;;17.65;8.40;;;;;;;9.09;85.95;100683.03;5135323;27;20047;-75
2021/10/03 05:27:02;;;;;;;17.70;8.20;;;;;;;9.20;85.65;100679.00;5135572;27;20050;-74
2021/10/03 05:29:31;;;;;;;20.35;8.45;;;;;;;9.35;84.66;100679.13;5135330;27;20100;-74
2021/10/03 05:31:59;;;;;;;14.68;8.25;;;;;;;9.36;84.78;100678.22;5135409;27;20046;-74
2021/10/03 05:34:28;;;;;;;17.80;8.50;;;;;;;9.53;83.68;100687.16;5134994;27;20043;-74
2021/10/03 05:36:56;;;;;;;17.45;7.78;;;;;;;9.40;84.09;100692.22;5135201;27;20450;-74
2021/10/03 05:39:24;;;;;;;15.57;7.80;;;;;;;9.37;85.12;100689.72;5133523;27;20058;-73
2021/10/03 05:41:52;;;;;;;16.67;7.90;;;;;;;9.29;85.65;100689.22;5135246;27;20075;-73
2021/10/03 05:44:20;;;;;;;12.38;7.10;;;;;;;9.50;83.70;100688.19;5134990;27;20100;-74
2021/10/03 05:46:50;;;;;;;14.98;8.20;;;;;;;9.66;83.01;100682.97;5135376;27;20472;-74
2021/10/03 05:49:18;;;;;;;16.35;7.72;;;;;;;9.87;81.85;100681.88;5134738;27;20047;-74
2021/10/03 05:51:47;;;;;;;10.52;7.28;;;;;;;10.04;80.71;100667.72;5134849;27;20411;-75
2021/10/03 05:54:15;;;;;;;14.07;7.13;;;;;;;10.13;80.43;100669.88;5134611;27;20484;-75
2021/10/03 05:56:43;;;;;;;10.18;7.30;;;;;;;10.29;79.23;100668.19;5134104;27;20047;-75
2021/10/03 05:59:13;;;;;;;16.65;7.80;;;;;;;10.27;79.46;100667.41;5134769;27;20043;-75
2021/10/03 06:01:42;;;;;;;12.25;7.53;;;;;;;10.28;79.38;100663.78;5134914;27;20067;-71
2021/10/03 06:04:12;;;;;;;13.30;7.13;;;;;;;10.41;78.84;100672.00;5134411;27;20059;-77
2021/10/03 06:06:40;;;;;;;13.57;7.63;;;;;;;10.47;78.90;100677.03;5133616;27;20054;-75
2021/10/03 06:09:09;;;;;;;14.40;6.90;;;;;;;10.41;79.21;100679.13;5134643;27;20078;-76
2021/10/03 06:11:37;;;;;;;14.95;7.32;;;;;;;10.41;79.24;100671.13;5134735;27;20043;-76
2021/10/03 06:14:06;;;;;;;12.38;6.72;;;;;;;10.64;77.75;100677.94;5134454;27;20545;-72
2021/10/03 06:16:35;;;;;;;10.88;7.22;;;;;;;10.82;77.08;100677.81;5134243;27;20074;-70
2021/10/03 06:19:03;;;;;;;14.82;7.45;;;;;;;10.71;77.53;100689.97;5137267;27;20039;-70
2021/10/03 06:21:33;;;;;;;12.00;6.07;;;;;;;10.70;77.54;100690.94;5134208;27;20070;-72
2021/10/03 06:24:04;;;;;;;17.37;7.50;;;;;;;10.70;77.66;100678.44;5134550;27;20051;-74
2021/10/03 06:26:33;;;;;;;12.73;7.25;;;;;;;10.79;76.69;100677.97;5133947;27;20051;-70
2021/10/03 06:29:03;;;;;;;11.13;6.55;;;;;;;10.85;76.81;100680.31;5134220;27;20035;-74
2021/10/03 06:31:31;;;;;;;12.05;6.75;;;;;;;10.96;75.77;100679.72;5134084;27;20054;-72
2021/10/03 06:33:59;;;;;;;15.18;6.47;;;;;;;11.12;74.75;100675.25;5134370;27;20103;-72
2021/10/03 06:36:30;;;;;;;13.43;6.40;;;;;;;11.29;74.08;100679.66;5134206;27;20046;-73
2021/10/03 06:38:59;;;;;;;12.25;6.55;;;;;;;11.46;73.25;100684.88;5134151;27;20043;-73
2021/10/03 06:41:28;;;;;;;10.77;6.40;;;;;;;11.37;73.70;100685.41;5133959;27;20357;-73
2021/10/03 06:44:00;;;;;;;11.43;6.15;;;;;;;11.46;73.31;100682.22;5134095;27;20483;-72
2021/10/03 06:46:28;;;;;;;15.70;7.13;;;;;;;11.38;74.03;100684.44;5134344;27;20491;-71
2021/10/03 06:48:56;;;;;;;12.52;6.40;;;;;;;11.54;73.50;100688.94;5133740;27;20043;-67
2021/10/03 06:51:26;;;;;;;13.98;6.47;;;;;;;11.64;72.77;100682.97;5134436;27;20099;-69
2021/10/03 06:53:54;;;;;;;15.05;6.75;;;;;;;11.64;71.95;100693.66;5133625;27;20051;-71
2021/10/03 06:56:24;;;;;;;12.02;6.80;;;;;;;11.76;72.36;100689.41;5133840;27;20073;-72
2021/10/03 06:58:52;;;;;;;12.38;7.22;;;;;;;11.79;72.97;100694.59;5133578;27;20070;-69
2021/10/03 07:01:20;;;;;;;13.23;6.60;;;;;;;11.92;72.27;100682.25;5134039;27;20043;-70
2021/10/03 07:03:50;;;;;;;12.60;6.57;;;;;;;11.88;71.29;100679.88;5133543;27;20046;-71
2021/10/03 07:06:19;;;;;;;10.90;6.68;;;;;;;12.02;70.81;100680.75;5134013;27;20126;-68
2021/10/03 07:08:47;;;;;;;11.93;7.03;;;;;;;12.00;71.39;100684.50;5133605;27;20369;-67
2021/10/03 07:11:19;;;;;;;13.90;6.47;;;;;;;12.10;70.37;100680.31;5133621;27;20043;-68
2021/10/03 07:13:49;;;;;;;12.65;6.45;;;;;;;12.12;70.46;100672.19;5133658;27;20043;-69
2021/10/03 07:16:18;;;;;;;12.23;6.75;;;;;;;12.25;70.07;100679.38;5135962;27;20092;-69
2021/10/03 07:18:46;;;;;;;11.90;6.82;;;;;;;12.38;69.78;100676.84;5133515;27;20039;-68
2021/10/03 07:21:15;;;;;;;10.30;5.65;;;;;;;12.50;69.07;100684.13;5133928;27;20044;-69
2021/10/03 07:23:43;;;;;;;11.05;5.97;;;;;;;12.62;68.65;100687.84;5133369;27;20035;-68
2021/10/03 07:26:12;;;;;;;12.93;6.70;;;;;;;12.53;69.30;100686.59;5133660;27;20047;-70
2021/10/03 07:28:41;;;;;;;10.75;6.50;;;;;;;12.63;68.69;100688.69;5133827;27;20121;-75
2021/10/03 07:31:13;;;;;;;10.85;6.65;;;;;;;12.64;68.81;100685.91;5137959;27;20047;-69
2021/10/03 07:33:44;;;;;;;12.00;6.40;;;;;;;12.74;68.55;100695.13;5137485;27;20043;-69
2021/10/03 07:36:19;;;;;;;11.70;6.47;;;;;;;12.81;67.86;100692.91;5137779;27;20039;-70
2021/10/03 07:38:48;;;;;;;12.32;5.95;;;;;;;12.91;67.38;100686.03;5137837;27;20131;-70
2021/10/03 07:41:16;;;;;;;12.82;6.47;;;;;;;12.94;67.11;100693.03;5137837;27;20074;-69
2021/10/03 07:43:46;;;;;;;11.30;6.47;;;;;;;12.84;67.27;100698.97;5137351;27;20104;-70
2021/10/03 07:46:17;;;;;;;11.63;6.93;;;;;;;12.94;67.02;100693.88;5137545;27;20039;-69
2021/10/03 07:48:46;;;;;;;9.60;6.45;;;;;;;12.95;67.19;100692.06;5137471;27;20171;-70
2021/10/03 07:51:14;;;;;;;13.55;6.35;;;;;;;13.06;67.65;100677.03;5137741;27;20059;-69
2021/10/03 07:53:43;;;;;;;12.07;6.05;;;;;;;13.13;67.17;100685.53;5137488;27;20046;-71
2021/10/03 07:56:12;;;;;;;15.38;6.38;;;;;;;13.23;67.03;100683.16;5137146;27;20043;-69
2021/10/03 07:58:40;;;;;;;11.20;6.90;;;;;;;13.28;66.96;100687.25;5137430;27;20117;-69
2021/10/03 08:01:08;;;;;;;10.98;6.40;;;;;;;13.34;66.71;100694.91;5137230;27;20096;-72
2021/10/03 08:03:39;;;;;;;15.70;6.75;;;;;;;13.33;66.92;100700.38;5137571;27;20050;-69
2021/10/03 08:06:08;;;;;;;10.85;6.47;;;;;;;13.36;66.21;100700.16;5137349;27;20051;-67
2021/10/03 08:08:36;;;;;;;14.65;6.65;;;;;;;13.41;66.43;100688.19;5137153;27;20138;-68
2021/10/03 08:11:05;;;;;;;13.25;6.85;;;;;;;13.51;66.30;100692.94;5136899;27;20135;-69
2021/10/03 08:13:34;;;;;;;15.48;7.00;;;;;;;13.50;66.71;100692.06;5136455;27;20047;-67
2021/10/03 08:16:02;;;;;;;13.57;6.63;;;;;;;13.67;66.18;100688.28;5134793;27;20051;-68
2021/10/03 08:18:32;;;;;;;12.60;6.63;;;;;;;13.69;66.36;100681.88;5136923;27;20437;-66
2021/10/03 08:21:03;;;;;;;12.50;7.03;;;;;;;13.77;66.27;100680.50;5136600;27;20043;-67
2021/10/03 08:23:31;;;;;;;13.80;6.70;;;;;;;13.83;66.05;100682.78;5137098;27;20044;-67
2021/10/03 08:25:59;;;;;;;11.63;7.00;;;;;;;13.94;65.53;100675.72;5136675;27;20062;-67
2021/10/03 08:28:28;;;;;;;11.68;6.65;;;;;;;14.00;65.84;100683.38;5136722;27;20137;-67
2021/10/03 08:30:59;;;;;;;11.07;7.25;;;;;;;14.06;65.94;100674.03;5136680;27;20039;-66
2021/10/03 08:33:27;;;;;;;12.45;6.82;;;;;;;14.28;63.81;100668.06;5136752;27;20399;-66
2021/10/03 08:35:55;;;;;;;13.00;6.78;;;;;;;14.35;63.33;100665.81;5136460;27;20450;-67
2021/10/03 08:38:25;;;;;;;11.40;6.90;;;;;;;14.37;63.35;100663.88;5136703;27;20108;-67
2021/10/03 08:40:53;;;;;;;13.25;6.50;;;;;;;14.43;63.66;100668.84;5134881;27;20384;-67
2021/10/03 08:43:22;;;;;;;10.68;6.35;;;;;;;14.48;62.96;100664.91;5136412;27;20043;-67
2021/10/03 08:45:50;;;;;;;13.45;6.68;;;;;;;14.51;63.57;100671.88;5136436;27;20548;-67
2021/10/03 08:48:27;;;;;;;13.65;6.90;;;;;;;14.57;62.75;100663.38;5136553;27;20096;-66
2021/10/03 08:50:57;;;;;;;9.65;6.53;;;;;;;14.58;63.34;100670.50;5136334;27;20043;-67
2021/10/03 08:53:27;;;;;;;10.73;6.63;;;;;;;14.65;62.92;100671.75;5136251;27;20488;-67
2021/10/03 08:55:57;;;;;;;11.07;6.10;;;;;;;14.70;62.42;100669.63;5135958;27;20092;-68
2021/10/03 08:58:26;;;;;;;12.35;6.55;;;;;;;14.81;62.40;100671.53;5136284;27;20035;-66
2021/10/03 09:00:55;;;;;;;11.57;6.35;;;;;;;14.95;61.62;100665.16;5136040;27;20502;-67
2021/10/03 09:03:23;;;;;;;13.25;6.05;;;;;;;14.95;62.27;100649.06;5135988;27;20043;-67
2021/10/03 09:05:53;;;;;;;11.25;6.72;;;;;;;15.11;60.90;100668.47;5135713;27;20039;-67
2021/10/03 09:08:23;;;;;;;13.65;6.10;;;;;;;15.10;61.06;100661.38;5136278;27;20043;-67
2021/10/03 09:10:56;;;;;;;13.20;6.30;;;;;;;15.12;61.28;100659.44;5134288;27;20047;-67
2021/10/03 09:13:47;;;;;;;14.23;6.10;;;;;;;15.23;61.13;100662.19;5135452;27;20138;-67
2021/10/03 09:16:20;;;;;;;13.60;6.93;;;;;;;15.28;61.53;100653.81;5135912;27;20043;-67
2021/10/03 09:18:51;;;;;;;10.73;6.27;;;;;;;15.49;60.45;100659.44;5135976;27;20039;-71
2021/10/03 09:21:40;;;;;;;10.75;6.00;;;;;;;15.57;60.00;100657.91;5135814;27;20038;-67
2021/10/03 09:24:12;;;;;;;11.02;5.65;;;;;;;15.68;58.90;100649.91;5135865;27;20532;-67
2021/10/03 09:26:56;;;;;;;11.75;6.20;;;;;;;15.61;59.88;100645.09;5135888;27;20138;-67
2021/10/03 09:29:27;;;;;;;10.00;5.90;;;;;;;15.76;59.26;100646.66;5135794;27;20039;-67
2021/10/03 09:32:10;;;;;;;12.77;6.30;;;;;;;15.78;58.72;100647.38;5135467;27;20039;-67
2021/10/03 09:34:39;;;;;;;14.30;6.00;;;;;;;15.82;58.88;100642.63;5135487;27;20095;-67
2021/10/03 09:37:22;;;;;;;11.93;6.28;;;;;;;15.93;59.27;100635.47;5135287;27;20480;-67
2021/10/03 09:39:51;;;;;;;9.65;5.82;;;;;;;15.95;57.99;100633.53;5135463;27;20381;-68
2021/10/03 09:42:21;;;;;;;11.00;5.68;;;;;;;15.96;58.53;100632.53;5135429;27;20108;-67
2021/10/03 09:45:08;;;;;;;10.52;5.68;;;;;;;16.00;57.79;100625.94;5135592;27;20043;-67
2021/10/03 09:47:37;;;;;;;12.23;5.85;;;;;;;16.11;58.88;100627.81;5135280;27;20085;-67
2021/10/03 09:50:08;;;;;;;12.60;5.82;;;;;;;16.13;58.69;100641.16;5135169;27;20118;-67
2021/10/03 09:52:38;;;;;;;11.27;5.70;;;;;;;16.19;58.06;100633.44;5134978;27;20061;-67
2021/10/03 09:55:09;;;;;;;9.82;5.95;;;;;;;16.23;58.49;100631.41;5134652;27;20050;-67
2021/10/03 09:57:39;;;;;;;12.85;6.03;;;;;;;16.37;58.24;100627.63;5135152;27;20043;-67
2021/10/03 10:00:08;;;;;;;10.55;5.72;;;;;;;16.33;58.32;100620.78;5134712;27;20043;-67
2021/10/03 10:02:36;;;;;;;16.35;5.82;;;;;;;16.48;57.72;100625.78;5135061;27;20039;-67
2021/10/03 10:05:05;;;;;;;17.58;5.95;;;;;;;16.58;57.15;100628.59;5134842;27;20049;-67
2021/10/03 10:07:34;;;;;;;10.60;5.70;;;;;;;16.64;57.23;100613.81;5133422;27;20574;-67
2021/10/03 10:10:04;;;;;;;9.70;5.70;;;;;;;16.73;57.03;100619.34;5134414;27;20118;-67
2021/10/03 10:12:37;;;;;;;11.98;6.07;;;;;;;16.65;57.16;100615.53;5134663;27;20035;-67
2021/10/03 10:15:10;;;;;;;12.13;5.82;;;;;;;16.79;56.61;100620.69;5134510;27;20035;-67
2021/10/03 10:17:42;;;;;;;9.57;5.20;;;;;;;16.94;56.36;100600.59;5134705;27;20107;-67
2021/10/03 10:20:35;;;;;;;8.20;5.55;;;;;;;16.91;56.76;100606.25;5134417;27;20035;-67
2021/10/03 10:23:06;;;;;;;8.23;5.63;;;;;;;16.83;56.97;100612.25;5134309;27;20039;-67
2021/10/03 10:25:44;;;;;;;10.85;5.85;;;;;;;16.93;56.62;100608.81;5134968;27;20077;-67
2021/10/03 10:28:15;;;;;;;8.85;5.88;;;;;;;16.99;56.42;100619.09;5134495;27;20071;-67
2021/10/03 10:31:21;;;;;;;12.10;5.70;;;;;;;16.99;56.13;100606.50;5134429;27;20441;-67
2021/10/03 10:34:17;;;;;;;12.30;5.57;;;;;;;17.08;56.53;100603.03;5071199;28;20052;-67
2021/10/03 10:36:55;;;;;;;9.15;5.55;;;;;;;17.09;55.66;100598.50;5071167;28;20041;-66
2021/10/03 10:39:28;;;;;;;11.10;5.68;;;;;;;17.06;56.55;100604.97;5118489;27;20050;-68
2021/10/03 10:42:02;;;;;;;9.50;5.73;;;;;;;17.17;56.47;100602.25;5134430;27;20039;-66
2021/10/03 10:44:39;;;;;;;9.43;5.47;;;;;;;17.31;56.08;100602.97;5134708;27;20044;-65
2021/10/03 10:47:12;;;;;;;17.67;6.10;;;;;;;17.38;56.14;100599.66;5134098;27;20449;-66
2021/10/03 10:49:42;;;;;;;9.32;5.90;;;;;;;17.41;56.10;100601.22;5134268;27;20095;-66
2021/10/03 10:52:39;;;;;;;12.40;5.38;;;;;;;17.38;56.48;100604.19;5134230;27;20046;-66
2021/10/03 10:55:27;;;;;;;12.07;5.97;;;;;;;17.41;55.26;100598.53;5134113;27;20054;-66
2021/10/03 10:58:12;;;;;;;11.32;6.03;;;;;;;17.44;56.17;100587.47;5133837;27;20039;-74
2021/10/03 11:01:11;;;;;;;13.15;5.90;;;;;;;17.56;55.82;100586.44;5134328;27;20043;-66
2021/10/03 11:04:09;;;;;;;10.30;5.40;;;;;;;17.67;55.19;100578.34;5133415;27;20044;-65
2021/10/03 11:07:03;;;;;;;12.77;5.85;;;;;;;17.51;56.19;100577.91;5134022;27;20039;-65
2021/10/03 11:10:09;;;;;;;9.00;5.60;;;;;;;17.55;56.40;100573.94;5134038;28;20046;-67
2021/10/03 11:12:38;;;;;;;12.95;5.65;;;;;;;17.54;56.44;100574.94;5134024;27;20050;-66
2021/10/03 11:15:27;;;;;;;10.43;5.38;;;;;;;17.80;54.88;100558.44;5133415;27;20043;-66
2021/10/03 11:18:03;;;;;;;13.77;6.10;;;;;;;17.67;56.16;100566.69;5133804;27;20070;-66
2021/10/03 11:20:34;;;;;;;16.65;5.80;;;;;;;17.83;55.52;100566.25;5133845;27;20043;-66
2021/10/03 11:23:03;;;;;;;9.60;5.63;;;;;;;17.93;55.31;100567.16;5133741;27;20036;-66
2021/10/03 11:25:31;;;;;;;9.80;5.78;;;;;;;17.88;55.39;100559.50;5133934;27;20043;-66
2021/10/03 11:27:59;;;;;;;16.02;6.90;;;;;;;17.90;55.44;100556.66;5133272;27;20491;-66
2021/10/03 11:30:29;;;;;;;13.05;5.78;;;;;;;18.02;55.39;100542.94;5133835;27;20035;-65
2021/10/03 11:32:57;;;;;;;11.70;6.05;;;;;;;18.06;56.05;100535.47;5133776;27;20114;-74
2021/10/03 11:35:27;;;;;;;11.10;5.63;;;;;;;18.24;55.15;100541.97;5133741;27;20533;-67
2021/10/03 11:38:02;;;;;;;12.05;6.07;;;;;;;18.22;55.31;100535.81;5133582;27;20050;-67